sensor_id;sensor_type;location;lat;lon;timestamp;pressure;altitude;pressure_sealevel;temperature;humidity
24013;BME280;12220;50.194;18.948;2023-04-19T00:00:10;102140.23;;;12.60;71.78
24013;BME280;12220;50.194;18.948;2023-04-19T00:02:20;102140.41;;;12.57;71.92
24013;BME280;12220;50.194;18.948;2023-04-19T00:04:27;102126.76;;;12.55;71.99
24013;BME280;12220;50.194;18.948;2023-04-19T00:06:29;102129.59;;;12.54;72.08
24013;BME280;12220;50.194;18.948;2023-04-19T00:08:31;102127.02;;;12.51;72.24
24013;BME280;12220;50.194;18.948;2023-04-19T00:10:33;102127.02;;;12.51;72.36
24013;BME280;12220;50.194;18.948;2023-04-19T00:12:40;102126.94;;;12.52;72.41
24013;BME280;12220;50.194;18.948;2023-04-19T00:14:44;102117.70;;;12.53;72.44
24013;BME280;12220;50.194;18.948;2023-04-19T00:16:46;102121.27;;;12.55;72.46
24013;BME280;12220;50.194;18.948;2023-04-19T00:18:47;102111.13;;;12.56;72.42
24013;BME280;12220;50.194;18.948;2023-04-19T00:20:52;102113.01;;;12.55;72.36
24013;BME280;12220;50.194;18.948;2023-04-19T00:22:54;102105.73;;;12.54;72.40
24013;BME280;12220;50.194;18.948;2023-04-19T00:24:56;102110.53;;;12.51;72.48
24013;BME280;12220;50.194;18.948;2023-04-19T00:27:03;102113.33;;;12.49;72.56
24013;BME280;12220;50.194;18.948;2023-04-19T00:29:07;102108.84;;;12.48;72.61
24013;BME280;12220;50.194;18.948;2023-04-19T00:31:12;102102.52;;;12.46;72.66
24013;BME280;12220;50.194;18.948;2023-04-19T00:33:13;102101.73;;;12.44;72.68
24013;BME280;12220;50.194;18.948;2023-04-19T00:35:15;102099.96;;;12.43;72.80
24013;BME280;12220;50.194;18.948;2023-04-19T00:37:22;102098.12;;;12.44;72.80
24013;BME280;12220;50.194;18.948;2023-04-19T00:39:24;102096.33;;;12.43;72.85
24013;BME280;12220;50.194;18.948;2023-04-19T00:41:28;102098.20;;;12.42;72.90
24013;BME280;12220;50.194;18.948;2023-04-19T00:43:29;102095.36;;;12.44;72.99
24013;BME280;12220;50.194;18.948;2023-04-19T00:45:37;102084.38;;;12.44;72.97
24013;BME280;12220;50.194;18.948;2023-04-19T00:47:39;101692.59;;;10.18;72.81
24013;BME280;12220;50.194;18.948;2023-04-19T00:49:40;102084.29;;;12.45;73.00
24013;BME280;12220;50.194;18.948;2023-04-19T00:51:46;102082.59;;;12.43;72.85
24013;BME280;12220;50.194;18.948;2023-04-19T00:53:52;102088.27;;;12.40;72.72
24013;BME280;12220;50.194;18.948;2023-04-19T00:55:59;102082.21;;;12.33;72.73
24013;BME280;12220;50.194;18.948;2023-04-19T00:58:08;102077.16;;;12.25;72.79
24013;BME280;12220;50.194;18.948;2023-04-19T01:00:10;102085.76;;;12.19;72.88
24013;BME280;12220;50.194;18.948;2023-04-19T01:02:12;102074.21;;;12.12;73.04
24013;BME280;12220;50.194;18.948;2023-04-19T01:04:14;102067.10;;;12.08;73.18
24013;BME280;12220;50.194;18.948;2023-04-19T01:06:16;102063.58;;;12.06;73.31
24013;BME280;12220;50.194;18.948;2023-04-19T01:08:17;102061.97;;;12.02;73.49
24013;BME280;12220;50.194;18.948;2023-04-19T01:10:30;102069.41;;;12.00;73.57
24013;BME280;12220;50.194;18.948;2023-04-19T01:12:31;102059.39;;;11.99;73.58
24013;BME280;12220;50.194;18.948;2023-04-19T01:14:33;102064.88;;;11.99;73.57
24013;BME280;12220;50.194;18.948;2023-04-19T01:16:35;102063.01;;;11.99;73.53
24013;BME280;12220;50.194;18.948;2023-04-19T01:18:43;102055.73;;;11.98;73.44
24013;BME280;12220;50.194;18.948;2023-04-19T01:20:45;102056.73;;;11.97;73.47
24013;BME280;12220;50.194;18.948;2023-04-19T01:22:46;102051.47;;;11.93;73.42
24013;BME280;12220;50.194;18.948;2023-04-19T01:24:48;102045.98;;;11.93;73.47
24013;BME280;12220;50.194;18.948;2023-04-19T01:26:57;102040.48;;;11.93;73.55
24013;BME280;12220;50.194;18.948;2023-04-19T01:28:59;102042.33;;;11.92;73.42
24013;BME280;12220;50.194;18.948;2023-04-19T01:31:03;102033.30;;;11.90;73.42
24013;BME280;12220;50.194;18.948;2023-04-19T01:33:05;102033.38;;;11.89;73.43
24013;BME280;12220;50.194;18.948;2023-04-19T01:35:12;102032.57;;;11.86;73.44
24013;BME280;12220;50.194;18.948;2023-04-19T01:37:15;102030.82;;;11.85;73.53
24013;BME280;12220;50.194;18.948;2023-04-19T01:39:16;102027.08;;;11.86;73.64
24013;BME280;12220;50.194;18.948;2023-04-19T01:41:17;102028.85;;;11.88;73.60
24013;BME280;12220;50.194;18.948;2023-04-19T01:43:27;102021.50;;;11.88;73.57
24013;BME280;12220;50.194;18.948;2023-04-19T01:45:29;102017.88;;;11.88;73.56
24013;BME280;12220;50.194;18.948;2023-04-19T01:47:32;102017.70;;;11.91;73.53
24013;BME280;12220;50.194;18.948;2023-04-19T01:49:34;102021.27;;;11.93;73.53
24013;BME280;12220;50.194;18.948;2023-04-19T01:51:42;102018.48;;;11.94;73.42
24013;BME280;12220;50.194;18.948;2023-04-19T01:53:44;102014.74;;;11.95;73.34
24013;BME280;12220;50.194;18.948;2023-04-19T01:55:53;102008.38;;;11.95;73.17
24013;BME280;12220;50.194;18.948;2023-04-19T01:58:00;101810.98;;;10.75;72.97
24013;BME280;12220;50.194;18.948;2023-04-19T02:00:02;102018.52;;;11.93;73.03
24013;BME280;12220;50.194;18.948;2023-04-19T02:02:06;102018.52;;;11.93;72.96
24013;BME280;12220;50.194;18.948;2023-04-19T02:04:08;102015.87;;;11.91;72.94
24013;BME280;12220;50.194;18.948;2023-04-19T02:06:13;102009.47;;;11.91;72.85
24013;BME280;12220;50.194;18.948;2023-04-19T02:08:14;102008.68;;;11.89;72.75
24013;BME280;12220;50.194;18.948;2023-04-19T02:10:16;102001.49;;;11.86;72.75
24013;BME280;12220;50.194;18.948;2023-04-19T02:12:17;102006.20;;;11.84;72.80
24013;BME280;12220;50.194;18.948;2023-04-19T02:14:19;102000.85;;;11.81;72.80
24013;BME280;12220;50.194;18.948;2023-04-19T02:16:28;102001.85;;;11.80;73.06
24013;BME280;12220;50.194;18.948;2023-04-19T02:18:33;101995.53;;;11.78;72.84
24013;BME280;12220;50.194;18.948;2023-04-19T02:20:41;101992.79;;;11.78;72.82
24013;BME280;12220;50.194;18.948;2023-04-19T02:22:42;101991.04;;;11.77;72.82
24013;BME280;12220;50.194;18.948;2023-04-19T02:24:46;101989.96;;;11.79;72.83
24013;BME280;12220;50.194;18.948;2023-04-19T02:26:48;101984.56;;;11.78;72.82
24013;BME280;12220;50.194;18.948;2023-04-19T02:28:52;101976.33;;;11.78;72.75
24013;BME280;12220;50.194;18.948;2023-04-19T02:31:03;101977.41;;;11.75;72.60
24013;BME280;12220;50.194;18.948;2023-04-19T02:33:05;101981.29;;;11.71;72.49
24013;BME280;12220;50.194;18.948;2023-04-19T02:35:07;101983.47;;;11.64;72.53
24013;BME280;12220;50.194;18.948;2023-04-19T02:37:09;101136.77;;;6.13;72.11
24013;BME280;12220;50.194;18.948;2023-04-19T02:39:13;101983.34;;;11.50;72.68
24013;BME280;12220;50.194;18.948;2023-04-19T02:41:18;101990.12;;;11.43;72.92
24013;BME280;12220;50.194;18.948;2023-04-19T02:43:21;101981.34;;;11.36;72.97
24013;BME280;12220;50.194;18.948;2023-04-19T02:45:23;101975.30;;;11.29;73.12
24013;BME280;12220;50.194;18.948;2023-04-19T02:47:24;101983.77;;;11.25;73.33
24013;BME280;12220;50.194;18.948;2023-04-19T02:49:32;101989.43;;;11.22;73.42
24013;BME280;12220;50.194;18.948;2023-04-19T02:51:40;101974.89;;;11.20;73.55
24013;BME280;12220;50.194;18.948;2023-04-19T02:53:45;101978.54;;;11.20;73.66
24013;BME280;12220;50.194;18.948;2023-04-19T02:55:46;101968.28;;;11.24;73.71
24013;BME280;12220;50.194;18.948;2023-04-19T02:57:49;101965.53;;;11.24;73.87
24013;BME280;12220;50.194;18.948;2023-04-19T02:59:51;101962.71;;;11.25;73.71
24013;BME280;12220;50.194;18.948;2023-04-19T03:01:55;101957.15;;;11.27;73.70
24013;BME280;12220;50.194;18.948;2023-04-19T03:03:56;101952.65;;;11.26;73.75
24013;BME280;12220;50.194;18.948;2023-04-19T03:06:05;101928.06;;;11.24;73.67
24013;BME280;12220;50.194;18.948;2023-04-19T03:08:09;101919.92;;;11.23;73.71
24013;BME280;12220;50.194;18.948;2023-04-19T03:10:11;101913.45;;;11.24;73.79
24013;BME280;12220;50.194;18.948;2023-04-19T03:12:12;101919.92;;;11.23;73.76
24013;BME280;12220;50.194;18.948;2023-04-19T03:14:21;101929.27;;;11.19;74.02
24013;BME280;12220;50.194;18.948;2023-04-19T03:16:24;101937.88;;;11.11;73.94
24013;BME280;12220;50.194;18.948;2023-04-19T03:18:26;101942.74;;;11.06;74.13
24013;BME280;12220;50.194;18.948;2023-04-19T03:20:28;101938.38;;;11.02;74.22
24013;BME280;12220;50.194;18.948;2023-04-19T03:22:37;101939.44;;;10.99;74.26
24013;BME280;12220;50.194;18.948;2023-04-19T03:24:39;101933.07;;;10.98;74.34
24013;BME280;12220;50.194;18.948;2023-04-19T03:26:40;101928.47;;;10.99;74.44
24013;BME280;12220;50.194;18.948;2023-04-19T03:28:44;101929.29;;;11.01;74.46
24013;BME280;12220;50.194;18.948;2023-04-19T03:30:55;101505.79;;;8.58;74.22
24013;BME280;12220;50.194;18.948;2023-04-19T03:32:56;101921.07;;;11.01;74.48
24013;BME280;12220;50.194;18.948;2023-04-19T03:34:59;101915.41;;;11.04;74.51
24013;BME280;12220;50.194;18.948;2023-04-19T03:37:01;101921.70;;;11.06;74.43
24013;BME280;12220;50.194;18.948;2023-04-19T03:39:07;101918.07;;;11.06;74.43
24013;BME280;12220;50.194;18.948;2023-04-19T03:41:18;101918.07;;;11.06;74.40
24013;BME280;12220;50.194;18.948;2023-04-19T03:43:20;101911.84;;;11.02;74.50
24013;BME280;12220;50.194;18.948;2023-04-19T03:45:22;101912.02;;;10.99;74.67
24013;BME280;12220;50.194;18.948;2023-04-19T03:47:24;101904.92;;;10.95;74.54
24013;BME280;12220;50.194;18.948;2023-04-19T03:49:26;101905.09;;;10.92;74.63
24013;BME280;12220;50.194;18.948;2023-04-19T03:51:27;101897.99;;;10.88;74.79
24013;BME280;12220;50.194;18.948;2023-04-19T03:53:28;101891.64;;;10.87;74.75
24013;BME280;12220;50.194;18.948;2023-04-19T03:55:42;101891.64;;;10.87;74.89
24013;BME280;12220;50.194;18.948;2023-04-19T03:57:44;101892.68;;;10.85;75.24
24013;BME280;12220;50.194;18.948;2023-04-19T03:59:45;101889.94;;;10.85;74.98
24013;BME280;12220;50.194;18.948;2023-04-19T04:01:46;101882.80;;;10.82;75.00
24013;BME280;12220;50.194;18.948;2023-04-19T04:03:54;101887.62;;;10.77;75.15
24013;BME280;12220;50.194;18.948;2023-04-19T04:05:56;101893.17;;;10.75;75.30
24013;BME280;12220;50.194;18.948;2023-04-19T04:07:57;101437.93;;;8.12;75.16
24013;BME280;12220;50.194;18.948;2023-04-19T04:09:58;101885.37;;;10.68;76.06
24013;BME280;12220;50.194;18.948;2023-04-19T04:12:09;101885.45;;;10.66;75.69
24013;BME280;12220;50.194;18.948;2023-04-19T04:14:13;101885.45;;;10.66;75.60
24013;BME280;12220;50.194;18.948;2023-04-19T04:16:15;101876.24;;;10.67;75.66
24013;BME280;12220;50.194;18.948;2023-04-19T04:18:16;101871.59;;;10.69;75.71
24013;BME280;12220;50.194;18.948;2023-04-19T04:20:24;101868.84;;;10.69;75.66
24013;BME280;12220;50.194;18.948;2023-04-19T04:22:26;101870.55;;;10.72;75.68
24013;BME280;12220;50.194;18.948;2023-04-19T04:24:28;101655.40;;;9.43;75.61
24013;BME280;12220;50.194;18.948;2023-04-19T04:26:35;101871.42;;;10.72;75.84
24013;BME280;12220;50.194;18.948;2023-04-19T04:28:39;101884.08;;;10.75;75.78
24013;BME280;12220;50.194;18.948;2023-04-19T04:30:41;101869.48;;;10.74;75.81
24013;BME280;12220;50.194;18.948;2023-04-19T04:32:42;101866.73;;;10.74;75.71
24013;BME280;12220;50.194;18.948;2023-04-19T04:34:52;101870.30;;;10.76;75.70
24013;BME280;12220;50.194;18.948;2023-04-19T04:36:54;101880.27;;;10.77;75.64
24013;BME280;12220;50.194;18.948;2023-04-19T04:38:57;101872.88;;;10.79;75.70
24013;BME280;12220;50.194;18.948;2023-04-19T04:41:01;101875.87;;;10.75;75.93
24013;BME280;12220;50.194;18.948;2023-04-19T04:43:02;101880.44;;;10.74;75.72
24013;BME280;12220;50.194;18.948;2023-04-19T04:45:10;101880.52;;;10.73;75.64
24013;BME280;12220;50.194;18.948;2023-04-19T04:47:12;101886.98;;;10.72;75.78
24013;BME280;12220;50.194;18.948;2023-04-19T04:49:15;101889.73;;;10.72;75.73
24013;BME280;12220;50.194;18.948;2023-04-19T04:51:16;101890.61;;;10.72;75.72
24013;BME280;12220;50.194;18.948;2023-04-19T04:53:25;101890.61;;;10.72;75.67
24013;BME280;12220;50.194;18.948;2023-04-19T04:55:27;101895.26;;;10.70;75.68
24013;BME280;12220;50.194;18.948;2023-04-19T04:57:28;101898.16;;;10.67;75.92
24013;BME280;12220;50.194;18.948;2023-04-19T04:59:30;101894.71;;;10.63;75.98
24013;BME280;12220;50.194;18.948;2023-04-19T05:01:39;101885.53;;;10.64;76.11
24013;BME280;12220;50.194;18.948;2023-04-19T05:03:44;101886.32;;;10.67;76.35
24013;BME280;12220;50.194;18.948;2023-04-19T05:05:45;101894.46;;;10.68;76.21
24013;BME280;12220;50.194;18.948;2023-04-19T05:07:47;101892.68;;;10.67;76.42
24013;BME280;12220;50.194;18.948;2023-04-19T05:09:54;101894.55;;;10.67;76.33
24013;BME280;12220;50.194;18.948;2023-04-19T05:11:56;101893.01;;;10.61;76.80
24013;BME280;12220;50.194;18.948;2023-04-19T05:13:57;101882.92;;;10.61;76.57
24013;BME280;12220;50.194;18.948;2023-04-19T05:15:58;101883.91;;;10.60;76.59
24013;BME280;12220;50.194;18.948;2023-04-19T05:18:09;101893.01;;;10.61;76.54
24013;BME280;12220;50.194;18.948;2023-04-19T05:20:11;101888.73;;;10.55;77.05
24013;BME280;12220;50.194;18.948;2023-04-19T05:22:12;101896.16;;;10.53;76.93
24013;BME280;12220;50.194;18.948;2023-04-19T05:24:13;101893.49;;;10.52;76.73
24013;BME280;12220;50.194;18.948;2023-04-19T05:26:26;101889.84;;;10.51;76.85
24013;BME280;12220;50.194;18.948;2023-04-19T05:28:28;101886.41;;;10.48;76.97
24013;BME280;12220;50.194;18.948;2023-04-19T05:30:29;101893.58;;;10.50;76.88
24013;BME280;12220;50.194;18.948;2023-04-19T05:32:31;101914.58;;;10.50;76.96
24013;BME280;12220;50.194;18.948;2023-04-19T05:34:39;101885.27;;;10.52;76.93
24013;BME280;12220;50.194;18.948;2023-04-19T05:36:43;101884.29;;;10.53;76.95
24013;BME280;12220;50.194;18.948;2023-04-19T05:38:47;101881.42;;;10.56;77.06
24013;BME280;12220;50.194;18.948;2023-04-19T05:40:49;101883.02;;;10.60;77.00
24013;BME280;12220;50.194;18.948;2023-04-19T05:42:54;101886.57;;;10.62;76.86
24013;BME280;12220;50.194;18.948;2023-04-19T05:44:57;101882.05;;;10.61;77.13
24013;BME280;12220;50.194;18.948;2023-04-19T05:46:59;101880.19;;;10.61;76.94
24013;BME280;12220;50.194;18.948;2023-04-19T05:49:01;101883.84;;;10.62;76.86
24013;BME280;12220;50.194;18.948;2023-04-19T05:51:12;101881.97;;;10.62;76.79
24013;BME280;12220;50.194;18.948;2023-04-19T05:53:14;101074.63;;;5.83;76.32
24013;BME280;12220;50.194;18.948;2023-04-19T05:55:18;101871.91;;;10.63;76.82
24013;BME280;12220;50.194;18.948;2023-04-19T05:57:19;101880.93;;;10.65;76.73
24013;BME280;12220;50.194;18.948;2023-04-19T05:59:26;101909.28;;;10.64;76.74
24013;BME280;12220;50.194;18.948;2023-04-19T06:01:28;101876.66;;;10.59;76.98
24013;BME280;12220;50.194;18.948;2023-04-19T06:03:29;101877.70;;;10.57;76.90
24013;BME280;12220;50.194;18.948;2023-04-19T06:05:31;101877.70;;;10.57;76.66
24013;BME280;12220;50.194;18.948;2023-04-19T06:07:41;101876.91;;;10.55;76.63
24013;BME280;12220;50.194;18.948;2023-04-19T06:09:43;101894.45;;;10.51;76.79
24013;BME280;12220;50.194;18.948;2023-04-19T06:11:44;101881.72;;;10.50;76.71
24013;BME280;12220;50.194;18.948;2023-04-19T06:13:46;101876.24;;;10.50;76.65
24013;BME280;12220;50.194;18.948;2023-04-19T06:15:56;101877.23;;;10.49;76.67
24013;BME280;12220;50.194;18.948;2023-04-19T06:17:58;101877.23;;;10.49;76.62
24013;BME280;12220;50.194;18.948;2023-04-19T06:20:00;101889.77;;;10.53;76.64
24013;BME280;12220;50.194;18.948;2023-04-19T06:22:02;101885.12;;;10.55;76.64
24013;BME280;12220;50.194;18.948;2023-04-19T06:24:11;101886.98;;;10.54;76.39
24013;BME280;12220;50.194;18.948;2023-04-19T06:26:13;101888.02;;;10.52;76.04
24013;BME280;12220;50.194;18.948;2023-04-19T06:28:14;101889.84;;;10.51;75.80
24013;BME280;12220;50.194;18.948;2023-04-19T06:30:18;101896.48;;;10.47;75.39
24013;BME280;12220;50.194;18.948;2023-04-19T06:32:26;101903.23;;;10.40;74.30
24013;BME280;12220;50.194;18.948;2023-04-19T06:34:27;101896.34;;;10.31;73.80
24013;BME280;12220;50.194;18.948;2023-04-19T06:36:29;101898.33;;;10.27;73.75
24013;BME280;12220;50.194;18.948;2023-04-19T06:38:36;101902.25;;;10.22;72.71
24013;BME280;12220;50.194;18.948;2023-04-19T06:40:41;101888.65;;;10.20;72.86
24013;BME280;12220;50.194;18.948;2023-04-19T06:42:42;101899.52;;;10.22;73.14
24013;BME280;12220;50.194;18.948;2023-04-19T06:44:44;101901.30;;;10.23;73.10
24013;BME280;12220;50.194;18.948;2023-04-19T06:46:48;101903.09;;;10.24;72.92
24013;BME280;12220;50.194;18.948;2023-04-19T06:48:56;101904.35;;;10.17;71.99
24013;BME280;12220;50.194;18.948;2023-04-19T06:50:57;101907.10;;;10.17;72.08
24013;BME280;12220;50.194;18.948;2023-04-19T06:52:59;101901.69;;;10.15;72.03
24013;BME280;12220;50.194;18.948;2023-04-19T06:55:00;101907.38;;;10.10;71.78
24013;BME280;12220;50.194;18.948;2023-04-19T06:57:17;101904.51;;;10.14;71.95
24013;BME280;12220;50.194;18.948;2023-04-19T06:59:19;101901.63;;;10.17;72.13
24013;BME280;12220;50.194;18.948;2023-04-19T07:01:21;101908.71;;;10.21;72.21
24013;BME280;12220;50.194;18.948;2023-04-19T07:03:22;101905.90;;;10.22;71.97
24013;BME280;12220;50.194;18.948;2023-04-19T07:05:29;101910.31;;;10.25;72.06
24013;BME280;12220;50.194;18.948;2023-04-19T07:07:31;101906.61;;;10.26;72.01
24013;BME280;12220;50.194;18.948;2023-04-19T07:09:33;101911.30;;;10.24;71.68
24013;BME280;12220;50.194;18.948;2023-04-19T07:11:34;101912.09;;;10.26;71.76
24013;BME280;12220;50.194;18.948;2023-04-19T07:13:43;101915.87;;;10.23;71.73
24013;BME280;12220;50.194;18.948;2023-04-19T07:15:44;101906.77;;;10.23;71.72
24013;BME280;12220;50.194;18.948;2023-04-19T07:17:45;101914.03;;;10.24;71.79
24013;BME280;12220;50.194;18.948;2023-04-19T07:19:47;101908.41;;;10.27;71.88
24013;BME280;12220;50.194;18.948;2023-04-19T07:21:58;101910.98;;;10.30;72.07
24013;BME280;12220;50.194;18.948;2023-04-19T07:23:59;101921.10;;;10.28;71.96
24013;BME280;12220;50.194;18.948;2023-04-19T07:26:00;101924.83;;;10.27;72.00
24013;BME280;12220;50.194;18.948;2023-04-19T07:28:06;101929.31;;;10.28;71.91
24013;BME280;12220;50.194;18.948;2023-04-19T07:30:13;101925.79;;;10.26;71.95
24013;BME280;12220;50.194;18.948;2023-04-19T07:32:14;101925.14;;;10.21;71.88
24013;BME280;12220;50.194;18.948;2023-04-19T07:34:16;101924.07;;;10.23;71.84
24013;BME280;12220;50.194;18.948;2023-04-19T07:36:17;101929.55;;;10.23;71.84
24013;BME280;12220;50.194;18.948;2023-04-19T07:38:28;101934.23;;;10.21;71.74
24013;BME280;12220;50.194;18.948;2023-04-19T07:40:29;101931.57;;;10.20;71.72
24013;BME280;12220;50.194;18.948;2023-04-19T07:42:30;101935.27;;;10.19;71.76
24013;BME280;12220;50.194;18.948;2023-04-19T07:44:32;101937.91;;;10.20;71.81
24013;BME280;12220;50.194;18.948;2023-04-19T07:46:43;101930.74;;;10.18;71.88
24013;BME280;12220;50.194;18.948;2023-04-19T07:48:45;101940.02;;;10.15;71.86
24013;BME280;12220;50.194;18.948;2023-04-19T07:50:47;101926.41;;;10.14;72.00
24013;BME280;12220;50.194;18.948;2023-04-19T07:52:48;101933.72;;;10.13;72.02
24013;BME280;12220;50.194;18.948;2023-04-19T07:54:57;101932.84;;;10.12;72.08
24013;BME280;12220;50.194;18.948;2023-04-19T07:56:59;101937.48;;;10.10;72.13
24013;BME280;12220;50.194;18.948;2023-04-19T07:59:00;101929.50;;;10.06;72.24
24013;BME280;12220;50.194;18.948;2023-04-19T08:01:02;101930.48;;;10.05;72.38
24013;BME280;12220;50.194;18.948;2023-04-19T08:03:12;101931.52;;;10.02;72.53
24013;BME280;12220;50.194;18.948;2023-04-19T08:05:15;101924.25;;;10.01;72.67
24013;BME280;12220;50.194;18.948;2023-04-19T08:07:20;101927.95;;;10.00;72.75
24013;BME280;12220;50.194;18.948;2023-04-19T08:09:23;101926.19;;;9.99;72.90
24013;BME280;12220;50.194;18.948;2023-04-19T08:11:27;101926.19;;;9.99;73.00
24013;BME280;12220;50.194;18.948;2023-04-19T08:13:29;101932.62;;;9.98;73.03
24013;BME280;12220;50.194;18.948;2023-04-19T08:15:32;101927.07;;;10.00;73.18
24013;BME280;12220;50.194;18.948;2023-04-19T08:17:36;101918.78;;;10.01;73.34
24013;BME280;12220;50.194;18.948;2023-04-19T08:19:42;101923.07;;;10.07;73.50
24013;BME280;12220;50.194;18.948;2023-04-19T08:21:44;101921.29;;;10.06;73.83
24013;BME280;12220;50.194;18.948;2023-04-19T08:23:45;101923.75;;;10.12;73.66
24013;BME280;12220;50.194;18.948;2023-04-19T08:25:47;101919.80;;;10.18;73.66
24013;BME280;12220;50.194;18.948;2023-04-19T08:27:57;101918.68;;;10.22;73.71
24013;BME280;12220;50.194;18.948;2023-04-19T08:29:59;101912.25;;;10.23;73.56
24013;BME280;12220;50.194;18.948;2023-04-19T08:32:00;101916.85;;;10.22;73.46
24013;BME280;12220;50.194;18.948;2023-04-19T08:34:02;101906.77;;;10.23;73.41
24013;BME280;12220;50.194;18.948;2023-04-19T08:36:12;101918.45;;;10.26;73.49
24013;BME280;12220;50.194;18.948;2023-04-19T08:38:14;101906.46;;;10.29;73.56
24013;BME280;12220;50.194;18.948;2023-04-19T08:40:15;101913.72;;;10.30;73.59
24013;BME280;12220;50.194;18.948;2023-04-19T08:42:17;101915.38;;;10.34;73.50
24013;BME280;12220;50.194;18.948;2023-04-19T08:44:29;101917.95;;;10.37;73.29
24013;BME280;12220;50.194;18.948;2023-04-19T08:46:31;101918.91;;;10.36;72.81
24013;BME280;12220;50.194;18.948;2023-04-19T08:48:34;101910.45;;;10.41;72.71
24013;BME280;12220;50.194;18.948;2023-04-19T08:50:37;101905.56;;;10.48;72.83
24013;BME280;12220;50.194;18.948;2023-04-19T08:52:43;101907.03;;;10.55;73.02
24013;BME280;12220;50.194;18.948;2023-04-19T08:54:45;101904.78;;;10.63;72.92
24013;BME280;12220;50.194;18.948;2023-04-19T08:56:47;101915.42;;;10.69;72.62
24013;BME280;12220;50.194;18.948;2023-04-19T08:58:48;101914.38;;;10.72;71.95
24013;BME280;12220;50.194;18.948;2023-04-19T09:00:57;101908.33;;;10.65;70.72
24013;BME280;12220;50.194;18.948;2023-04-19T09:03:02;101909.20;;;10.66;70.79
24013;BME280;12220;50.194;18.948;2023-04-19T09:05:03;101901.73;;;10.69;71.05
24013;BME280;12220;50.194;18.948;2023-04-19T09:07:07;101904.23;;;10.74;70.65
24013;BME280;12220;50.194;18.948;2023-04-19T09:09:18;101904.85;;;10.79;70.79
24013;BME280;12220;50.194;18.948;2023-04-19T09:11:19;101905.76;;;10.79;70.04
24013;BME280;12220;50.194;18.948;2023-04-19T09:13:23;101900.73;;;10.88;70.29
24013;BME280;12220;50.194;18.948;2023-04-19T09:15:37;101900.43;;;10.94;70.03
24013;BME280;12220;50.194;18.948;2023-04-19T09:17:39;101894.53;;;11.02;69.93
24013;BME280;12220;50.194;18.948;2023-04-19T09:19:49;101891.45;;;11.08;69.79
24013;BME280;12220;50.194;18.948;2023-04-19T09:21:51;101886.79;;;11.10;69.02
24013;BME280;12220;50.194;18.948;2023-04-19T09:23:53;101895.88;;;11.10;68.70
24013;BME280;12220;50.194;18.948;2023-04-19T09:25:59;101894.03;;;11.11;68.85
24013;BME280;12220;50.194;18.948;2023-04-19T09:28:10;101904.77;;;11.15;68.87
24013;BME280;12220;50.194;18.948;2023-04-19T09:30:12;101896.68;;;11.12;68.06
24013;BME280;12220;50.194;18.948;2023-04-19T09:32:13;101892.81;;;11.16;68.08
24013;BME280;12220;50.194;18.948;2023-04-19T09:34:17;101892.81;;;11.16;67.85
24013;BME280;12220;50.194;18.948;2023-04-19T09:36:29;101895.55;;;11.16;67.70
24013;BME280;12220;50.194;18.948;2023-04-19T09:38:48;101894.77;;;11.14;67.08
24013;BME280;12220;50.194;18.948;2023-04-19T09:40:49;101897.50;;;11.14;67.51
24013;BME280;12220;50.194;18.948;2023-04-19T09:42:51;101895.63;;;11.15;67.53
24013;BME280;12220;50.194;18.948;2023-04-19T09:44:59;101915.95;;;11.11;66.36
24013;BME280;12220;50.194;18.948;2023-04-19T09:47:00;101905.00;;;11.11;66.61
24013;BME280;12220;50.194;18.948;2023-04-19T09:49:17;101910.64;;;11.08;66.71
24013;BME280;12220;50.194;18.948;2023-04-19T09:51:20;101908.80;;;11.08;66.88
24013;BME280;12220;50.194;18.948;2023-04-19T09:53:23;101915.41;;;11.04;66.56
24013;BME280;12220;50.194;18.948;2023-04-19T09:55:26;101902.83;;;11.00;66.82
24013;BME280;12220;50.194;18.948;2023-04-19T09:57:27;101912.35;;;10.93;66.97
24013;BME280;12220;50.194;18.948;2023-04-19T09:59:29;101910.20;;;10.82;67.13
24013;BME280;12220;50.194;18.948;2023-04-19T10:01:34;101909.86;;;10.71;67.22
24013;BME280;12220;50.194;18.948;2023-04-19T10:03:45;101909.44;;;10.61;67.48
24013;BME280;12220;50.194;18.948;2023-04-19T10:05:48;101916.36;;;10.51;67.72
24013;BME280;12220;50.194;18.948;2023-04-19T10:07:51;101917.80;;;10.40;67.89
24013;BME280;12220;50.194;18.948;2023-04-19T10:09:54;101917.26;;;10.32;68.18
24013;BME280;12220;50.194;18.948;2023-04-19T10:11:58;101915.00;;;10.23;68.33
24013;BME280;12220;50.194;18.948;2023-04-19T10:14:04;101913.75;;;10.11;68.68
24013;BME280;12220;50.194;18.948;2023-04-19T10:16:08;101910.50;;;10.03;68.96
24013;BME280;12220;50.194;18.948;2023-04-19T10:18:10;101913.63;;;9.95;69.12
24013;BME280;12220;50.194;18.948;2023-04-19T10:20:17;101915.59;;;9.91;69.21
24013;BME280;12220;50.194;18.948;2023-04-19T10:22:21;101926.92;;;9.84;69.33
24013;BME280;12220;50.194;18.948;2023-04-19T10:24:23;101914.35;;;9.80;69.55
24013;BME280;12220;50.194;18.948;2023-04-19T10:26:25;101919.89;;;9.78;69.76
24013;BME280;12220;50.194;18.948;2023-04-19T10:28:28;101909.86;;;9.79;69.86
24013;BME280;12220;50.194;18.948;2023-04-19T10:30:30;101911.63;;;9.80;70.01
24013;BME280;12220;50.194;18.948;2023-04-19T10:32:38;101911.54;;;9.81;70.02
24013;BME280;12220;50.194;18.948;2023-04-19T10:34:43;101917.77;;;9.85;70.16
24013;BME280;12220;50.194;18.948;2023-04-19T10:36:46;101914.13;;;9.84;70.10
24013;BME280;12220;50.194;18.948;2023-04-19T10:38:48;101919.59;;;9.84;70.20